Time;durP1;ratioP1;P1;durP2;ratioP2;P2;SDS_P1;SDS_P2;PMS_P1;PMS_P2;Temp;Humidity;BMP_temperature;BMP_pressure;BME280_temperature;BME280_humidity;BME280_pressure;Samples;Min_cycle;Max_cycle;Signal;HPM_P1;HPM_P2
2023/03/24 00:04:41;;;;;;;4.23;2.57;;;;;;;11.77;63.64;99491.19;30609357;28;96702;-62
2023/03/24 00:19:44;;;;;;;4.97;3.00;;;;;;;11.99;63.85;99474.13;30615839;28;97058;-62
2023/03/24 00:34:44;;;;;;;5.80;3.07;;;;;;;12.00;63.03;99459.75;30628326;28;96936;-62
2023/03/24 00:49:44;;;;;;;6.20;3.70;;;;;;;11.90;63.62;99445.91;30625894;28;96785;-62
2023/03/24 01:04:46;;;;;;;7.22;4.30;;;;;;;11.79;63.99;99419.78;30624859;28;97082;-63
2023/03/24 01:19:46;;;;;;;6.23;3.70;;;;;;;11.65;64.41;99395.69;30623122;28;96581;-62
2023/03/24 01:34:46;;;;;;;6.85;3.50;;;;;;;11.80;64.75;99392.91;30622053;28;96689;-62
2023/03/24 01:49:58;;;;;;;6.63;4.07;;;;;;;11.88;64.71;99393.75;30620159;28;96990;-62
2023/03/24 02:05:02;;;;;;;4.93;3.03;;;;;;;11.90;64.65;99363.19;30619967;28;96882;-62
2023/03/24 02:20:27;;;;;;;5.50;3.37;;;;;;;12.01;64.73;99345.78;30618131;28;97002;-62
2023/03/24 02:35:52;;;;;;;4.20;2.57;;;;;;;12.24;64.95;99336.63;30616896;28;96922;-62
2023/03/24 02:51:24;;;;;;;4.57;2.33;;;;;;;12.54;63.94;99323.72;30613909;28;96697;-63
2023/03/24 03:06:39;;;;;;;5.10;2.60;;;;;;;12.67;63.24;99322.91;30613837;28;97185;-63
2023/03/24 03:21:43;;;;;;;3.17;2.40;;;;;;;12.56;63.42;99320.84;30611590;28;96726;-63
2023/03/24 03:36:49;;;;;;;5.10;2.87;;;;;;;12.43;63.90;99314.47;30611226;28;97603;-62
2023/03/24 03:51:51;;;;;;;5.20;3.17;;;;;;;12.19;64.78;99303.34;30613032;28;97470;-62
2023/03/24 04:07:23;;;;;;;5.20;3.40;;;;;;;12.04;65.21;99289.34;30630224;28;97464;-62
2023/03/24 04:23:08;;;;;;;6.43;3.63;;;;;;;11.86;65.76;99281.88;30628607;28;96687;-62
2023/03/24 04:38:15;;;;;;;6.67;3.10;;;;;;;11.76;66.13;99274.25;30625739;28;96749;-62
2023/03/24 04:53:16;;;;;;;5.93;3.40;;;;;;;11.79;67.44;99265.03;30624521;28;97136;-62
2023/03/24 05:08:17;;;;;;;6.18;3.20;;;;;;;11.87;67.39;99248.84;30620259;28;109489;-63
2023/03/24 05:23:18;;;;;;;4.97;2.63;;;;;;;12.08;66.75;99263.06;30616366;28;97735;-63
2023/03/24 05:38:18;;;;;;;5.78;2.53;;;;;;;12.33;67.08;99253.44;30610598;28;104098;-63
2023/03/24 05:53:19;;;;;;;3.30;2.30;;;;;;;12.66;66.50;99255.28;30612257;28;97277;-63
2023/03/24 06:08:19;;;;;;;4.03;1.67;;;;;;;12.88;66.23;99254.25;30676770;28;97777;-65
2023/03/24 06:23:22;;;;;;;3.35;1.98;;;;;;;13.16;65.60;99257.47;30612690;28;98528;-65
2023/03/24 06:38:22;;;;;;;;;;;;;;;13.45;64.83;99252.69;30618116;28;97575;-64
2023/03/24 06:53:23;;;;;;;4.35;2.30;;;;;;;13.88;64.46;99238.66;30735992;28;96942;-62
2023/03/24 07:08:23;;;;;;;6.80;3.05;;;;;;;14.32;63.80;99236.09;30738059;28;97419;-63
2023/03/24 07:23:26;;;;;;;3.92;2.35;;;;;;;14.35;63.38;99250.91;30733752;28;96820;-66
2023/03/24 07:38:26;;;;;;;4.67;3.03;;;;;;;14.16;63.65;99226.75;30615889;28;97165;-63
2023/03/24 07:53:27;;;;;;;5.93;3.13;;;;;;;13.86;64.86;99203.25;30608378;28;97031;-61
2023/03/24 08:08:27;;;;;;;5.13;3.67;;;;;;;13.64;65.50;99193.91;30606320;28;97745;-65
2023/03/24 08:23:28;;;;;;;7.32;3.17;;;;;;;13.85;66.05;99188.22;30605201;28;96673;-65
2023/03/24 08:38:31;;;;;;;3.40;1.80;;;;;;;15.71;63.47;99180.34;30609064;28;96885;-61
2023/03/24 08:53:31;;;;;;;5.70;2.27;;;;;;;16.81;59.31;99164.69;30624225;28;97397;-60
2023/03/24 09:08:32;;;;;;;2.97;1.92;;;;;;;16.18;59.51;99137.50;30621078;28;112500;-62
2023/03/24 09:23:32;;;;;;;4.10;2.10;;;;;;;16.54;58.49;99127.56;30619382;28;100784;-62
2023/03/24 09:38:33;;;;;;;3.55;2.20;;;;;;;16.65;58.05;99112.47;30607004;28;97049;-63
2023/03/24 09:53:48;;;;;;;7.67;1.87;;;;;;;16.86;58.03;99092.19;30617123;28;97595;-65
2023/03/24 10:09:12;;;;;;;3.03;1.50;;;;;;;17.33;55.91;99074.25;30619982;28;96748;-68
2023/03/24 10:24:43;;;;;;;5.07;1.80;;;;;;;18.56;52.44;99060.00;30617308;28;97211;-63
2023/03/24 10:39:43;;;;;;;2.80;1.70;;;;;;;21.45;45.33;99035.72;30615874;28;96819;-63
2023/03/24 10:55:05;;;;;;;4.20;1.63;;;;;;;20.87;41.53;99033.19;30618846;28;96828;-61
2023/03/24 11:10:05;;;;;;;3.93;1.47;;;;;;;19.30;43.19;99030.03;30612083;28;96813;-63
2023/03/24 11:25:11;;;;;;;2.42;1.38;;;;;;;18.80;44.24;99016.56;30614642;28;96688;-65
2023/03/24 11:40:12;;;;;;;3.73;1.87;;;;;;;18.57;44.83;99012.25;30610763;28;97420;-64
2023/03/24 11:55:28;;;;;;;4.28;2.35;;;;;;;18.38;45.58;98999.06;30609562;28;96719;-63
2023/03/24 12:10:35;;;;;;;3.30;1.80;;;;;;;18.48;45.57;98987.63;30605474;28;98481;-66
2023/03/24 12:25:44;;;;;;;4.23;1.83;;;;;;;18.24;46.03;98979.75;30627817;28;97370;-66
2023/03/24 12:41:02;;;;;;;3.00;1.70;;;;;;;18.22;46.41;98973.00;30625968;28;97034;-65
2023/03/24 12:56:29;;;;;;;4.10;2.30;;;;;;;17.97;47.37;98966.19;30617632;28;97005;-66
2023/03/24 13:11:37;;;;;;;6.00;3.20;;;;;;;17.80;48.59;98944.66;30615789;28;96869;-62
2023/03/24 13:26:38;;;;;;;5.13;3.03;;;;;;;17.66;49.36;98925.38;30621801;28;97436;-62
2023/03/24 13:41:40;;;;;;;4.80;2.73;;;;;;;17.57;49.74;98924.94;30617375;28;96798;-64
2023/03/24 13:57:01;;;;;;;5.37;2.83;;;;;;;17.57;49.56;98924.16;30613507;28;97207;-62
2023/03/24 14:12:02;;;;;;;4.47;2.13;;;;;;;17.53;49.69;98918.44;30613841;28;97251;-67
2023/03/24 14:27:29;;;;;;;3.92;2.28;;;;;;;17.86;49.04;98903.25;30614578;28;97235;-64
2023/03/24 14:42:32;;;;;;;4.53;2.30;;;;;;;17.67;49.35;98907.31;30614325;28;96822;-63
2023/03/24 14:57:41;;;;;;;3.07;2.27;;;;;;;17.91;49.07;98903.34;30614168;28;96683;-64
2023/03/24 15:12:49;;;;;;;3.00;2.00;;;;;;;17.78;48.82;98895.59;30611490;28;97236;-64
2023/03/24 15:27:50;;;;;;;6.70;2.20;;;;;;;17.89;48.26;98880.41;30609113;28;97589;-65
2023/03/24 15:42:51;;;;;;;;;;;;;;;17.54;48.95;98879.69;30608245;28;97222;-62
2023/03/24 15:57:55;;;;;;;4.40;1.80;;;;;;;17.22;49.07;98869.53;30628755;28;96722;-62
2023/03/24 16:12:55;;;;;;;2.17;1.57;;;;;;;16.96;49.89;98880.97;30627562;28;96762;-62
2023/03/24 16:27:55;;;;;;;3.33;2.00;;;;;;;16.71;50.56;98884.81;30625225;28;96774;-62
2023/03/24 16:42:58;;;;;;;4.63;1.60;;;;;;;16.40;50.64;98895.00;30625178;28;97441;-62
2023/03/24 16:57:58;;;;;;;2.70;1.67;;;;;;;15.90;51.41;98905.31;30624169;28;96847;-65
2023/03/24 17:13:00;;;;;;;3.10;1.60;;;;;;;15.64;52.62;98913.88;30623303;28;97138;-62
2023/03/24 17:28:02;;;;;;;3.00;1.87;;;;;;;15.62;53.03;98942.81;30619446;28;96832;-62
2023/03/24 17:43:04;;;;;;;4.33;1.80;;;;;;;15.54;53.30;98947.47;30618227;28;96756;-62
2023/03/24 17:58:04;;;;;;;2.43;1.30;;;;;;;15.09;54.81;99057.16;30617925;28;97302;-63
2023/03/24 18:13:06;;;;;;;3.40;1.00;;;;;;;14.02;56.84;99054.66;30616911;28;96681;-61
2023/03/24 18:28:07;;;;;;;3.47;1.00;;;;;;;13.47;57.76;99067.84;30615001;28;96667;-61
2023/03/24 18:43:07;;;;;;;3.23;1.60;;;;;;;13.00;59.03;99102.88;30613187;28;96758;-64
2023/03/24 18:58:13;;;;;;;3.88;1.80;;;;;;;12.45;60.34;99097.91;30613157;28;110720;-63
2023/03/24 19:13:15;;;;;;;5.20;2.37;;;;;;;12.12;61.62;99058.75;30611946;28;96712;-63
2023/03/24 19:28:16;;;;;;;3.70;1.90;;;;;;;11.49;62.90;99042.09;30610009;28;97194;-62
2023/03/24 19:43:17;;;;;;;4.85;2.63;;;;;;;11.01;64.72;99055.56;30610491;28;97405;-62
2023/03/24 19:58:18;;;;;;;5.97;2.80;;;;;;;11.04;65.88;99100.47;30639232;28;96634;-63
2023/03/24 20:13:19;;;;;;;5.55;2.95;;;;;;;11.12;65.79;99094.16;30609593;28;96737;-65
2023/03/24 20:28:20;;;;;;;4.70;3.08;;;;;;;11.11;66.23;99092.50;30608335;28;97510;-64
2023/03/24 20:43:20;;;;;;;7.87;2.70;;;;;;;10.91;66.73;99119.09;30622700;28;96742;-66
2023/03/24 20:58:20;;;;;;;6.07;4.00;;;;;;;10.61;66.91;99122.03;30624119;28;101432;-63
2023/03/24 21:13:21;;;;;;;9.50;4.55;;;;;;;10.35;67.62;99128.00;30623666;28;104781;-63
2023/03/24 21:28:21;;;;;;;6.05;3.30;;;;;;;10.37;67.48;99132.09;30623629;28;107768;-65
2023/03/24 21:43:21;;;;;;;5.85;2.80;;;;;;;10.42;66.60;99131.53;30622992;28;96745;-63
2023/03/24 21:58:23;;;;;;;6.32;2.00;;;;;;;10.37;66.33;99125.97;30621209;28;97544;-63
2023/03/24 22:13:25;;;;;;;3.70;1.90;;;;;;;10.31;65.66;99131.03;30619742;28;96757;-63
2023/03/24 22:28:25;;;;;;;5.57;2.07;;;;;;;10.23;64.97;99122.38;30618567;28;96701;-68
2023/03/24 22:43:27;;;;;;;3.17;1.60;;;;;;;10.16;64.36;99131.13;30616786;28;107309;-63
2023/03/24 22:58:27;;;;;;;5.60;1.70;;;;;;;10.07;64.24;99145.56;30616076;28;96672;-63
2023/03/24 23:13:29;;;;;;;6.20;1.92;;;;;;;9.95;63.79;99147.97;30615520;28;106782;-69
2023/03/24 23:28:33;;;;;;;4.27;1.90;;;;;;;9.82;63.83;99153.97;30613830;28;96683;-68
2023/03/24 23:43:34;;;;;;;3.67;2.00;;;;;;;9.70;63.82;99160.00;30612372;28;96634;-63
2023/03/24 23:58:37;;;;;;;4.30;2.00;;;;;;;9.58;64.02;99149.88;30611197;28;97282;-69
